sensor_id;sensor_type;location;lat;lon;timestamp;pressure;altitude;pressure_sealevel;temperature;humidity
67840;BME280;54636;51.684;5.142;2023-08-06T00:00:15;100398.94;;;14.88;100.00
67840;BME280;54636;51.684;5.142;2023-08-06T00:02:41;100398.50;;;14.83;100.00
67840;BME280;54636;51.684;5.142;2023-08-06T00:05:06;100392.31;;;14.83;100.00
67840;BME280;54636;51.684;5.142;2023-08-06T00:07:32;100394.53;;;14.85;100.00
67840;BME280;54636;51.684;5.142;2023-08-06T00:09:57;100391.13;;;14.78;100.00
67840;BME280;54636;51.684;5.142;2023-08-06T00:12:23;100393.41;;;14.74;100.00
67840;BME280;54636;51.684;5.142;2023-08-06T00:14:52;100393.66;;;14.76;100.00
67840;BME280;54636;51.684;5.142;2023-08-06T00:17:17;100401.84;;;14.76;100.00
67840;BME280;54636;51.684;5.142;2023-08-06T00:19:43;100391.22;;;14.73;100.00
67840;BME280;54636;51.684;5.142;2023-08-06T00:22:08;100383.31;;;14.69;100.00
67840;BME280;54636;51.684;5.142;2023-08-06T00:24:34;100383.00;;;14.73;100.00
67840;BME280;54636;51.684;5.142;2023-08-06T00:27:00;100381.00;;;14.73;100.00
67840;BME280;54636;51.684;5.142;2023-08-06T00:29:25;100375.09;;;14.69;100.00
67840;BME280;54636;51.684;5.142;2023-08-06T00:31:50;100369.19;;;14.65;100.00
67840;BME280;54636;51.684;5.142;2023-08-06T00:34:16;100380.78;;;14.71;100.00
67840;BME280;54636;51.684;5.142;2023-08-06T00:36:41;100378.34;;;14.68;100.00
67840;BME280;54636;51.684;5.142;2023-08-06T00:39:07;100385.22;;;14.74;100.00
67840;BME280;54636;51.684;5.142;2023-08-06T00:41:32;100350.00;;;14.52;100.00
67840;BME280;54636;51.684;5.142;2023-08-06T00:43:58;100376.28;;;14.74;100.00
67840;BME280;54636;51.684;5.142;2023-08-06T00:46:23;100375.75;;;14.75;100.00
67840;BME280;54636;51.684;5.142;2023-08-06T00:48:50;100365.72;;;14.65;100.00
67840;BME280;54636;51.684;5.142;2023-08-06T00:51:16;100376.38;;;14.68;100.00
67840;BME280;54636;51.684;5.142;2023-08-06T00:53:42;100376.06;;;14.72;100.00
67840;BME280;54636;51.684;5.142;2023-08-06T00:56:09;100377.03;;;14.74;100.00
67840;BME280;54636;51.684;5.142;2023-08-06T00:58:35;100382.72;;;14.76;100.00
67840;BME280;54636;51.684;5.142;2023-08-06T01:01:01;100377.25;;;14.76;100.00
67840;BME280;54636;51.684;5.142;2023-08-06T01:03:27;100368.38;;;14.70;100.00
67840;BME280;54636;51.684;5.142;2023-08-06T01:05:52;100359.53;;;14.64;100.00
67840;BME280;54636;51.684;5.142;2023-08-06T01:11:17;100370.50;;;14.77;100.00
67840;BME280;54636;51.684;5.142;2023-08-06T01:13:47;100338.13;;;14.49;100.00
67840;BME280;54636;51.684;5.142;2023-08-06T01:16:18;100368.25;;;14.63;100.00
67840;BME280;54636;51.684;5.142;2023-08-06T01:18:44;100360.56;;;14.61;100.00
67840;BME280;54636;51.684;5.142;2023-08-06T01:21:17;100379.09;;;14.68;100.00
67840;BME280;54636;51.684;5.142;2023-08-06T01:23:43;100374.06;;;14.72;100.00
67840;BME280;54636;51.684;5.142;2023-08-06T01:26:22;100374.06;;;14.72;100.00
67840;BME280;54636;51.684;5.142;2023-08-06T01:29:30;100378.06;;;14.71;100.00
67840;BME280;54636;51.684;5.142;2023-08-06T01:32:00;100378.78;;;14.72;100.00
67840;BME280;54636;51.684;5.142;2023-08-06T01:34:32;100375.31;;;14.71;100.00
67840;BME280;54636;51.684;5.142;2023-08-06T01:37:00;100383.53;;;14.71;100.00
67840;BME280;54636;51.684;5.142;2023-08-06T01:39:27;100375.31;;;14.71;100.00
67840;BME280;54636;51.684;5.142;2023-08-06T01:41:52;100384.78;;;14.70;100.00
67840;BME280;54636;51.684;5.142;2023-08-06T01:44:18;100379.41;;;14.65;100.00
67840;BME280;54636;51.684;5.142;2023-08-06T01:46:44;100385.75;;;14.73;100.00
67840;BME280;54636;51.684;5.142;2023-08-06T01:49:09;100389.94;;;14.74;100.00
67840;BME280;54636;51.684;5.142;2023-08-06T01:51:34;100377.84;;;14.69;100.00
67840;BME280;54636;51.684;5.142;2023-08-06T01:54:00;100369.41;;;14.67;100.00
67840;BME280;54636;51.684;5.142;2023-08-06T01:56:25;100376.59;;;14.70;100.00
67840;BME280;54636;51.684;5.142;2023-08-06T01:58:51;100379.75;;;14.74;100.00
67840;BME280;54636;51.684;5.142;2023-08-06T02:01:16;100380.50;;;14.75;100.00
67840;BME280;54636;51.684;5.142;2023-08-06T02:03:42;100370.91;;;14.68;100.00
67840;BME280;54636;51.684;5.142;2023-08-06T02:06:07;100381.75;;;14.74;100.00
67840;BME280;54636;51.684;5.142;2023-08-06T02:08:35;100384.25;;;14.72;100.00
67840;BME280;54636;51.684;5.142;2023-08-06T02:11:01;100376.88;;;14.67;100.00
67840;BME280;54636;51.684;5.142;2023-08-06T02:13:28;100380.56;;;14.69;100.00
67840;BME280;54636;51.684;5.142;2023-08-06T02:15:53;100379.75;;;14.74;100.00
67840;BME280;54636;51.684;5.142;2023-08-06T02:18:19;100379.75;;;14.74;100.00
67840;BME280;54636;51.684;5.142;2023-08-06T02:20:55;100385.00;;;14.72;100.00
67840;BME280;54636;51.684;5.142;2023-08-06T02:23:21;100365.72;;;14.65;100.00
67840;BME280;54636;51.684;5.142;2023-08-06T02:25:47;100387.97;;;14.74;100.00
67840;BME280;54636;51.684;5.142;2023-08-06T02:28:12;100382.28;;;14.72;100.00
67840;BME280;54636;51.684;5.142;2023-08-06T02:30:37;100383.00;;;14.73;100.00
67840;BME280;54636;51.684;5.142;2023-08-06T02:33:03;100372.59;;;14.71;100.00
67840;BME280;54636;51.684;5.142;2023-08-06T02:35:28;100378.28;;;14.73;100.00
67840;BME280;54636;51.684;5.142;2023-08-06T02:37:53;100359.22;;;14.68;100.00
67840;BME280;54636;51.684;5.142;2023-08-06T02:40:19;100366.47;;;14.65;100.00
67840;BME280;54636;51.684;5.142;2023-08-06T02:42:44;100372.38;;;14.69;100.00
67840;BME280;54636;51.684;5.142;2023-08-06T02:45:09;100384.47;;;14.74;100.00
67840;BME280;54636;51.684;5.142;2023-08-06T02:47:35;100379.41;;;14.65;100.00
67840;BME280;54636;51.684;5.142;2023-08-06T02:50:00;100375.63;;;14.68;100.00
67840;BME280;54636;51.684;5.142;2023-08-06T02:52:26;100379.75;;;14.74;100.00
67840;BME280;54636;51.684;5.142;2023-08-06T02:54:51;100382.19;;;14.78;100.00
67840;BME280;54636;51.684;5.142;2023-08-06T02:57:16;100373.25;;;14.77;100.00
67840;BME280;54636;51.684;5.142;2023-08-06T02:59:42;100363.34;;;14.74;100.00
67840;BME280;54636;51.684;5.142;2023-08-06T03:02:07;100362.84;;;14.76;100.00
67840;BME280;54636;51.684;5.142;2023-08-06T03:04:32;100362.00;;;14.81;100.00
67840;BME280;54636;51.684;5.142;2023-08-06T03:06:58;100360.31;;;14.78;100.00
67840;BME280;54636;51.684;5.142;2023-08-06T03:09:23;100364.75;;;14.81;100.00
67840;BME280;54636;51.684;5.142;2023-08-06T03:11:48;100357.66;;;14.72;100.00
67840;BME280;54636;51.684;5.142;2023-08-06T03:14:14;100346.69;;;14.59;100.00
67840;BME280;54636;51.684;5.142;2023-08-06T03:16:39;100372.00;;;14.78;100.00
67840;BME280;54636;51.684;5.142;2023-08-06T03:19:05;100354.78;;;14.65;100.00
67840;BME280;54636;51.684;5.142;2023-08-06T03:21:30;100352.06;;;14.65;100.00
67840;BME280;54636;51.684;5.142;2023-08-06T03:23:55;100364.91;;;14.70;100.00
67840;BME280;54636;51.684;5.142;2023-08-06T03:26:21;100375.53;;;14.73;100.00
67840;BME280;54636;51.684;5.142;2023-08-06T03:28:46;100367.41;;;14.68;100.00
67840;BME280;54636;51.684;5.142;2023-08-06T03:31:11;100373.41;;;14.66;100.00
67840;BME280;54636;51.684;5.142;2023-08-06T03:33:37;100374.22;;;14.61;100.00
67840;BME280;54636;51.684;5.142;2023-08-06T03:36:02;100371.06;;;14.57;100.00
67840;BME280;54636;51.684;5.142;2023-08-06T03:38:28;100364.53;;;14.60;100.00
67840;BME280;54636;51.684;5.142;2023-08-06T03:40:53;100380.13;;;14.65;100.00
67840;BME280;54636;51.684;5.142;2023-08-06T03:43:19;100376.88;;;14.67;100.00
67840;BME280;54636;51.684;5.142;2023-08-06T03:45:44;100382.34;;;14.67;100.00
67840;BME280;54636;51.684;5.142;2023-08-06T03:48:10;100377.63;;;14.67;100.00
67840;BME280;54636;51.684;5.142;2023-08-06T03:50:35;100371.94;;;14.65;100.00
67840;BME280;54636;51.684;5.142;2023-08-06T03:53:01;100361.16;;;14.54;100.00
67840;BME280;54636;51.684;5.142;2023-08-06T03:55:27;100382.66;;;14.63;100.00
67840;BME280;54636;51.684;5.142;2023-08-06T03:57:52;100385.59;;;14.65;100.00
67840;BME280;54636;51.684;5.142;2023-08-06T04:00:18;100361.22;;;14.48;100.00
67840;BME280;54636;51.684;5.142;2023-08-06T04:02:43;100376.53;;;14.57;100.00
67840;BME280;54636;51.684;5.142;2023-08-06T04:05:08;100387.38;;;14.63;100.00
67840;BME280;54636;51.684;5.142;2023-08-06T04:07:34;100393.81;;;14.65;100.00
67840;BME280;54636;51.684;5.142;2023-08-06T04:10:01;100379.47;;;14.59;100.00
67840;BME280;54636;51.684;5.142;2023-08-06T04:12:27;100386.41;;;14.60;100.00
67840;BME280;54636;51.684;5.142;2023-08-06T04:14:53;100387.81;;;14.67;100.00
67840;BME280;54636;51.684;5.142;2023-08-06T04:17:19;100401.19;;;14.70;100.00
67840;BME280;54636;51.684;5.142;2023-08-06T04:19:50;100387.81;;;14.67;100.00
67840;BME280;54636;51.684;5.142;2023-08-06T04:22:15;100381.69;;;14.61;100.00
67840;BME280;54636;51.684;5.142;2023-08-06T04:24:41;100378.50;;;14.57;100.00
67840;BME280;54636;51.684;5.142;2023-08-06T04:27:08;100398.81;;;14.61;100.00
67840;BME280;54636;51.684;5.142;2023-08-06T04:29:34;100390.25;;;14.52;100.00
67840;BME280;54636;51.684;5.142;2023-08-06T04:31:59;100397.56;;;14.43;100.00
67840;BME280;54636;51.684;5.142;2023-08-06T04:34:25;100400.75;;;14.47;100.00
67840;BME280;54636;51.684;5.142;2023-08-06T04:36:50;100408.88;;;14.53;100.00
67840;BME280;54636;51.684;5.142;2023-08-06T04:39:15;100407.91;;;14.50;100.00
67840;BME280;54636;51.684;5.142;2023-08-06T04:41:41;100421.50;;;14.56;100.00
67840;BME280;54636;51.684;5.142;2023-08-06T04:44:06;100415.81;;;14.54;100.00
67840;BME280;54636;51.684;5.142;2023-08-06T04:46:31;100421.72;;;14.58;100.00
67840;BME280;54636;51.684;5.142;2023-08-06T04:48:57;100422.25;;;14.57;100.00
67840;BME280;54636;51.684;5.142;2023-08-06T04:51:22;100426.16;;;14.61;100.00
67840;BME280;54636;51.684;5.142;2023-08-06T04:53:47;100423.94;;;14.60;100.00
67840;BME280;54636;51.684;5.142;2023-08-06T04:56:13;100426.16;;;14.61;100.00
67840;BME280;54636;51.684;5.142;2023-08-06T04:58:38;100430.59;;;14.64;100.00
67840;BME280;54636;51.684;5.142;2023-08-06T05:01:03;100426.31;;;14.69;100.00
67840;BME280;54636;51.684;5.142;2023-08-06T05:03:29;100432.44;;;14.75;100.00
67840;BME280;54636;51.684;5.142;2023-08-06T05:05:54;100426.44;;;14.76;100.00
67840;BME280;54636;51.684;5.142;2023-08-06T05:08:20;100418.84;;;14.69;100.00
67840;BME280;54636;51.684;5.142;2023-08-06T05:10:45;100424.69;;;14.79;100.00
67840;BME280;54636;51.684;5.142;2023-08-06T05:13:11;100428.38;;;14.81;100.00
67840;BME280;54636;51.684;5.142;2023-08-06T05:15:36;100429.84;;;14.82;100.00
67840;BME280;54636;51.684;5.142;2023-08-06T05:18:02;100449.03;;;14.96;100.00
67840;BME280;54636;51.684;5.142;2023-08-06T05:20:28;100443.34;;;14.94;100.00
67840;BME280;54636;51.684;5.142;2023-08-06T05:22:53;100448.09;;;14.93;100.00
67840;BME280;54636;51.684;5.142;2023-08-06T05:25:19;100446.63;;;14.92;100.00
67840;BME280;54636;51.684;5.142;2023-08-06T05:27:45;100456.19;;;14.99;100.00
67840;BME280;54636;51.684;5.142;2023-08-06T05:30:10;100459.38;;;15.03;100.00
67840;BME280;54636;51.684;5.142;2023-08-06T05:32:36;100456.19;;;14.99;100.00
67840;BME280;54636;51.684;5.142;2023-08-06T05:35:01;100451.34;;;14.92;100.00
67840;BME280;54636;51.684;5.142;2023-08-06T05:37:28;100469.88;;;14.99;100.00
67840;BME280;54636;51.684;5.142;2023-08-06T05:39:53;100479.25;;;15.03;100.00
67840;BME280;54636;51.684;5.142;2023-08-06T05:42:18;100484.50;;;15.01;100.00
67840;BME280;54636;51.684;5.142;2023-08-06T05:44:44;100475.00;;;14.89;100.00
67840;BME280;54636;51.684;5.142;2023-08-06T05:47:09;100484.97;;;14.87;100.00
67840;BME280;54636;51.684;5.142;2023-08-06T05:49:34;100492.97;;;14.85;100.00
67840;BME280;54636;51.684;5.142;2023-08-06T05:52:00;100500.41;;;14.65;100.00
67840;BME280;54636;51.684;5.142;2023-08-06T05:54:25;100498.38;;;14.47;100.00
67840;BME280;54636;51.684;5.142;2023-08-06T05:56:50;100507.94;;;14.35;100.00
67840;BME280;54636;51.684;5.142;2023-08-06T05:59:16;100513.41;;;14.10;100.00
67840;BME280;54636;51.684;5.142;2023-08-06T06:01:41;100508.75;;;14.05;100.00
67840;BME280;54636;51.684;5.142;2023-08-06T06:04:06;100502.25;;;13.84;100.00
67840;BME280;54636;51.684;5.142;2023-08-06T06:06:32;100513.66;;;13.82;100.00
67840;BME280;54636;51.684;5.142;2023-08-06T06:08:57;100527.59;;;13.79;100.00
67840;BME280;54636;51.684;5.142;2023-08-06T06:11:23;100524.97;;;13.68;100.00
67840;BME280;54636;51.684;5.142;2023-08-06T06:13:51;100504.09;;;13.40;100.00
67840;BME280;54636;51.684;5.142;2023-08-06T06:16:17;100538.44;;;13.60;100.00
67840;BME280;54636;51.684;5.142;2023-08-06T06:18:43;100528.81;;;13.54;100.00
67840;BME280;54636;51.684;5.142;2023-08-06T06:21:09;100550.09;;;13.61;100.00
67840;BME280;54636;51.684;5.142;2023-08-06T06:23:34;100549.91;;;13.53;100.00
67840;BME280;54636;51.684;5.142;2023-08-06T06:26:00;100553.16;;;13.46;100.00
67840;BME280;54636;51.684;5.142;2023-08-06T06:28:25;100564.81;;;13.46;100.00
67840;BME280;54636;51.684;5.142;2023-08-06T06:30:51;100552.50;;;13.34;100.00
67840;BME280;54636;51.684;5.142;2023-08-06T06:33:16;100564.59;;;13.44;100.00
67840;BME280;54636;51.684;5.142;2023-08-06T06:35:41;100579.97;;;13.42;100.00
67840;BME280;54636;51.684;5.142;2023-08-06T06:38:07;100588.69;;;13.35;100.00
67840;BME280;54636;51.684;5.142;2023-08-06T06:40:32;100590.16;;;13.41;100.00
67840;BME280;54636;51.684;5.142;2023-08-06T06:42:58;100587.19;;;13.39;100.00
67840;BME280;54636;51.684;5.142;2023-08-06T06:45:23;100592.44;;;13.32;100.00
67840;BME280;54636;51.684;5.142;2023-08-06T06:47:49;100583.81;;;13.22;100.00
67840;BME280;54636;51.684;5.142;2023-08-06T06:50:14;100591.69;;;13.31;100.00
67840;BME280;54636;51.684;5.142;2023-08-06T06:52:39;100598.59;;;13.38;100.00
67840;BME280;54636;51.684;5.142;2023-08-06T06:55:05;100589.97;;;13.28;100.00
67840;BME280;54636;51.684;5.142;2023-08-06T06:57:30;100604.31;;;13.40;100.00
67840;BME280;54636;51.684;5.142;2023-08-06T06:59:56;100603.78;;;13.41;100.00
67840;BME280;54636;51.684;5.142;2023-08-06T07:02:21;100606.28;;;13.39;100.00
67840;BME280;54636;51.684;5.142;2023-08-06T07:04:47;100615.72;;;13.38;100.00
67840;BME280;54636;51.684;5.142;2023-08-06T07:07:12;100616.97;;;13.37;100.00
67840;BME280;54636;51.684;5.142;2023-08-06T07:09:37;100607.34;;;13.25;100.00
67840;BME280;54636;51.684;5.142;2023-08-06T07:12:03;100624.91;;;13.35;100.00
67840;BME280;54636;51.684;5.142;2023-08-06T07:14:29;100617.22;;;13.34;100.00
67840;BME280;54636;51.684;5.142;2023-08-06T07:16:54;100627.88;;;13.37;100.00
67840;BME280;54636;51.684;5.142;2023-08-06T07:19:20;100620.72;;;13.29;100.00
67840;BME280;54636;51.684;5.142;2023-08-06T07:21:45;100633.31;;;13.43;100.00
67840;BME280;54636;51.684;5.142;2023-08-06T07:24:11;100642.00;;;13.41;100.00
67840;BME280;54636;51.684;5.142;2023-08-06T07:26:37;100645.94;;;13.46;100.00
67840;BME280;54636;51.684;5.142;2023-08-06T07:29:02;100644.91;;;13.55;100.00
67840;BME280;54636;51.684;5.142;2023-08-06T07:31:28;100638.22;;;13.50;100.00
67840;BME280;54636;51.684;5.142;2023-08-06T07:33:53;100654.03;;;13.63;100.00
67840;BME280;54636;51.684;5.142;2023-08-06T07:36:19;100654.28;;;13.65;100.00
67840;BME280;54636;51.684;5.142;2023-08-06T07:38:44;100664.63;;;13.72;100.00
67840;BME280;54636;51.684;5.142;2023-08-06T07:41:10;100659.44;;;13.68;100.00
67840;BME280;54636;51.684;5.142;2023-08-06T07:43:35;100661.41;;;13.73;100.00
67840;BME280;54636;51.684;5.142;2023-08-06T07:46:01;100663.84;;;13.77;100.00
67840;BME280;54636;51.684;5.142;2023-08-06T07:48:27;100669.31;;;13.77;100.00
67840;BME280;54636;51.684;5.142;2023-08-06T07:50:54;100669.81;;;13.75;100.00
67840;BME280;54636;51.684;5.142;2023-08-06T07:53:23;100666.81;;;13.79;100.00
67840;BME280;54636;51.684;5.142;2023-08-06T07:55:52;100654.41;;;13.78;100.00
67840;BME280;54636;51.684;5.142;2023-08-06T07:58:19;100672.00;;;13.82;100.00
67840;BME280;54636;51.684;5.142;2023-08-06T08:00:45;100678.41;;;13.91;100.00
67840;BME280;54636;51.684;5.142;2023-08-06T08:03:14;100672.69;;;13.94;100.00
67840;BME280;54636;51.684;5.142;2023-08-06T08:05:40;100673.38;;;14.00;100.00
67840;BME280;54636;51.684;5.142;2023-08-06T08:08:06;100654.81;;;13.93;100.00
67840;BME280;54636;51.684;5.142;2023-08-06T08:10:32;100670.38;;;14.04;100.00
67840;BME280;54636;51.684;5.142;2023-08-06T08:12:58;100671.91;;;13.99;100.00
67840;BME280;54636;51.684;5.142;2023-08-06T08:15:24;100662.50;;;13.95;100.00
67840;BME280;54636;51.684;5.142;2023-08-06T08:17:51;100681.81;;;14.02;100.00
67840;BME280;54636;51.684;5.142;2023-08-06T08:20:17;100675.19;;;13.92;100.00
67840;BME280;54636;51.684;5.142;2023-08-06T08:22:43;100677.41;;;13.94;100.00
67840;BME280;54636;51.684;5.142;2023-08-06T08:25:08;100682.13;;;13.93;100.00
67840;BME280;54636;51.684;5.142;2023-08-06T08:27:33;100667.56;;;13.79;100.00
67840;BME280;54636;51.684;5.142;2023-08-06T08:29:59;100688.13;;;13.86;100.00
67840;BME280;54636;51.684;5.142;2023-08-06T08:32:24;100679.72;;;13.78;100.00
67840;BME280;54636;51.684;5.142;2023-08-06T08:34:50;100691.13;;;13.82;100.00
67840;BME280;54636;51.684;5.142;2023-08-06T08:37:15;100697.78;;;13.87;100.00
67840;BME280;54636;51.684;5.142;2023-08-06T08:39:40;100689.16;;;13.77;100.00
67840;BME280;54636;51.684;5.142;2023-08-06T08:42:06;100699.09;;;13.75;100.00
67840;BME280;54636;51.684;5.142;2023-08-06T08:44:32;100677.56;;;13.66;100.00
67840;BME280;54636;51.684;5.142;2023-08-06T08:46:59;100687.53;;;13.63;100.00
67840;BME280;54636;51.684;5.142;2023-08-06T08:49:26;100704.53;;;13.80;100.00
67840;BME280;54636;51.684;5.142;2023-08-06T08:51:53;100697.81;;;13.81;100.00
67840;BME280;54636;51.684;5.142;2023-08-06T08:54:20;100711.22;;;13.85;100.00
67840;BME280;54636;51.684;5.142;2023-08-06T08:56:46;100719.88;;;13.89;100.00
67840;BME280;54636;51.684;5.142;2023-08-06T08:59:11;100706.53;;;13.80;100.00
67840;BME280;54636;51.684;5.142;2023-08-06T09:01:38;100708.50;;;13.79;100.00
67840;BME280;54636;51.684;5.142;2023-08-06T09:04:05;100719.63;;;13.87;100.00
67840;BME280;54636;51.684;5.142;2023-08-06T09:06:37;100706.53;;;13.80;100.00
67840;BME280;54636;51.684;5.142;2023-08-06T09:09:09;100673.19;;;13.51;100.00
67840;BME280;54636;51.684;5.142;2023-08-06T09:11:42;100690.47;;;13.65;100.00
67840;BME280;54636;51.684;5.142;2023-08-06T09:14:08;100699.13;;;13.69;100.00
67840;BME280;54636;51.684;5.142;2023-08-06T09:16:37;100710.53;;;13.73;100.00
67840;BME280;54636;51.684;5.142;2023-08-06T09:19:13;100726.34;;;13.86;100.00
67840;BME280;54636;51.684;5.142;2023-08-06T09:21:43;100712.75;;;13.75;100.00
67840;BME280;54636;51.684;5.142;2023-08-06T09:26:36;100707.09;;;13.67;100.00
67840;BME280;54636;51.684;5.142;2023-08-06T09:29:01;100718.97;;;13.70;100.00
67840;BME280;54636;51.684;5.142;2023-08-06T09:31:39;100730.59;;;13.81;100.00
67840;BME280;54636;51.684;5.142;2023-08-06T09:34:11;100743.72;;;13.89;100.00
67840;BME280;54636;51.684;5.142;2023-08-06T09:36:48;100746.47;;;13.83;100.00
67840;BME280;54636;51.684;5.142;2023-08-06T09:39:15;100744.97;;;13.82;100.00
67840;BME280;54636;51.684;5.142;2023-08-06T09:41:42;100738.59;;;13.68;100.00
67840;BME280;54636;51.684;5.142;2023-08-06T09:44:18;100714.59;;;13.56;100.00
67840;BME280;54636;51.684;5.142;2023-08-06T09:46:48;100740.34;;;13.66;100.00
67840;BME280;54636;51.684;5.142;2023-08-06T09:49:14;100761.38;;;13.76;100.00
67840;BME280;54636;51.684;5.142;2023-08-06T09:51:40;100763.38;;;13.76;100.00
67840;BME280;54636;51.684;5.142;2023-08-06T09:54:06;100792.63;;;13.87;100.00
67840;BME280;54636;51.684;5.142;2023-08-06T09:56:34;100761.72;;;13.62;100.00
67840;BME280;54636;51.684;5.142;2023-08-06T09:59:04;100772.06;;;13.74;100.00
67840;BME280;54636;51.684;5.142;2023-08-06T10:01:33;100764.88;;;13.71;100.00
67840;BME280;54636;51.684;5.142;2023-08-06T10:03:59;100749.56;;;13.63;100.00
67840;BME280;54636;51.684;5.142;2023-08-06T10:06:26;100771.06;;;13.77;100.00
67840;BME280;54636;51.684;5.142;2023-08-06T10:08:51;100771.50;;;13.87;100.00
67840;BME280;54636;51.684;5.142;2023-08-06T10:11:17;100795.78;;;14.02;100.00
67840;BME280;54636;51.684;5.142;2023-08-06T10:13:45;100765.31;;;13.87;100.00
67840;BME280;54636;51.684;5.142;2023-08-06T10:16:11;100811.34;;;14.18;100.00
67840;BME280;54636;51.684;5.142;2023-08-06T10:18:38;100791.00;;;14.13;100.00
67840;BME280;54636;51.684;5.142;2023-08-06T10:21:08;100772.00;;;13.91;100.00
67840;BME280;54636;51.684;5.142;2023-08-06T10:23:34;100814.31;;;14.20;100.00
67840;BME280;54636;51.684;5.142;2023-08-06T10:26:04;100771.28;;;13.79;100.00
67840;BME280;54636;51.684;5.142;2023-08-06T10:28:39;100805.94;;;14.01;100.00
67840;BME280;54636;51.684;5.142;2023-08-06T10:31:05;100805.94;;;14.01;100.00
67840;BME280;54636;51.684;5.142;2023-08-06T10:33:47;100791.56;;;14.01;100.00
67840;BME280;54636;51.684;5.142;2023-08-06T10:36:13;100798.91;;;14.17;100.00
67840;BME280;54636;51.684;5.142;2023-08-06T10:38:46;100812.69;;;14.36;100.00
67840;BME280;54636;51.684;5.142;2023-08-06T10:41:23;100802.50;;;14.36;100.00
67840;BME280;54636;51.684;5.142;2023-08-06T10:43:49;100819.84;;;14.50;100.00
67840;BME280;54636;51.684;5.142;2023-08-06T10:46:28;100814.06;;;14.59;100.00
67840;BME280;54636;51.684;5.142;2023-08-06T10:48:54;100807.00;;;14.75;100.00
67840;BME280;54636;51.684;5.142;2023-08-06T10:51:19;100804.22;;;14.80;100.00
67840;BME280;54636;51.684;5.142;2023-08-06T10:53:46;100813.91;;;15.06;100.00
67840;BME280;54636;51.684;5.142;2023-08-06T10:56:19;100819.25;;;15.23;100.00
67840;BME280;54636;51.684;5.142;2023-08-06T10:58:48;100812.28;;;15.22;100.00
67840;BME280;54636;51.684;5.142;2023-08-06T11:01:15;100818.91;;;15.32;100.00
67840;BME280;54636;51.684;5.142;2023-08-06T11:03:45;100816.50;;;15.47;100.00
67840;BME280;54636;51.684;5.142;2023-08-06T11:06:17;100812.00;;;15.49;100.00
67840;BME280;54636;51.684;5.142;2023-08-06T11:08:48;100811.25;;;15.49;100.00
67840;BME280;54636;51.684;5.142;2023-08-06T11:11:15;100814.63;;;15.61;100.00
67840;BME280;54636;51.684;5.142;2023-08-06T11:13:44;100784.50;;;15.61;100.00
67840;BME280;54636;51.684;5.142;2023-08-06T11:16:14;100826.81;;;15.84;100.00
67840;BME280;54636;51.684;5.142;2023-08-06T11:18:40;100819.31;;;15.85;100.00
67840;BME280;54636;51.684;5.142;2023-08-06T11:21:06;100813.91;;;15.79;100.00
67840;BME280;54636;51.684;5.142;2023-08-06T11:23:34;100809.03;;;15.72;100.00
67840;BME280;54636;51.684;5.142;2023-08-06T11:25:59;100812.34;;;15.65;100.00
67840;BME280;54636;51.684;5.142;2023-08-06T11:28:25;100809.03;;;15.47;100.00
67840;BME280;54636;51.684;5.142;2023-08-06T11:30:51;100815.81;;;15.65;100.00
67840;BME280;54636;51.684;5.142;2023-08-06T11:33:26;100826.06;;;15.84;100.00
67840;BME280;54636;51.684;5.142;2023-08-06T11:35:54;100820.59;;;15.84;100.00
67840;BME280;54636;51.684;5.142;2023-08-06T11:38:20;100822.66;;;15.96;100.00
67840;BME280;54636;51.684;5.142;2023-08-06T11:40:45;100824.81;;;16.03;100.00
67840;BME280;54636;51.684;5.142;2023-08-06T11:43:13;100817.56;;;16.06;100.00
67840;BME280;54636;51.684;5.142;2023-08-06T11:45:38;100812.81;;;16.06;100.00
67840;BME280;54636;51.684;5.142;2023-08-06T11:48:05;100806.47;;;15.98;100.00
67840;BME280;54636;51.684;5.142;2023-08-06T11:50:30;100829.97;;;16.26;100.00
67840;BME280;54636;51.684;5.142;2023-08-06T11:52:57;100827.38;;;16.52;100.00
67840;BME280;54636;51.684;5.142;2023-08-06T11:55:24;100820.84;;;16.55;100.00
67840;BME280;54636;51.684;5.142;2023-08-06T11:57:50;100808.31;;;16.60;100.00
67840;BME280;54636;51.684;5.142;2023-08-06T12:00:16;100815.34;;;16.74;100.00
67840;BME280;54636;51.684;5.142;2023-08-06T12:02:44;100798.25;;;16.49;100.00
67840;BME280;54636;51.684;5.142;2023-08-06T12:05:20;100831.41;;;16.83;100.00
67840;BME280;54636;51.684;5.142;2023-08-06T12:07:49;100806.72;;;16.83;100.00
67840;BME280;54636;51.684;5.142;2023-08-06T12:10:16;100809.25;;;16.81;100.00
67840;BME280;54636;51.684;5.142;2023-08-06T12:12:42;100831.19;;;16.81;100.00
67840;BME280;54636;51.684;5.142;2023-08-06T12:15:08;100812.63;;;16.55;100.00
67840;BME280;54636;51.684;5.142;2023-08-06T12:17:35;100839.44;;;16.62;100.00
67840;BME280;54636;51.684;5.142;2023-08-06T12:20:00;100844.19;;;16.62;100.00
67840;BME280;54636;51.684;5.142;2023-08-06T12:22:26;100843.97;;;16.60;100.00
67840;BME280;54636;51.684;5.142;2023-08-06T12:24:52;100842.78;;;16.55;100.00
67840;BME280;54636;51.684;5.142;2023-08-06T12:27:17;100841.81;;;16.71;100.00
67840;BME280;54636;51.684;5.142;2023-08-06T12:29:52;100856.00;;;16.89;100.00
67840;BME280;54636;51.684;5.142;2023-08-06T12:32:17;100830.47;;;16.94;100.00
67840;BME280;54636;51.684;5.142;2023-08-06T12:34:44;100845.19;;;17.23;100.00
67840;BME280;54636;51.684;5.142;2023-08-06T12:37:10;100853.47;;;17.36;100.00
67840;BME280;54636;51.684;5.142;2023-08-06T12:39:36;100850.50;;;17.47;100.00
67840;BME280;54636;51.684;5.142;2023-08-06T12:42:02;100859.38;;;17.40;100.00